Time;durP1;ratioP1;P1;durP2;ratioP2;P2;SDS_P1;SDS_P2;PMS_P1;PMS_P2;Temp;Humidity;BMP_temperature;BMP_pressure;BME280_temperature;BME280_humidity;BME280_pressure;Samples;Min_cycle;Max_cycle;Signal;HPM_P1;HPM_P2
2023/09/01 00:01:36;;;;;;;38.95;19.20;;;;;;;33.48;37.71;99701.14;1712107;84;21323;-78
2023/09/01 00:04:55;;;;;;;40.55;19.75;;;;;;;33.19;38.15;99699.95;1712631;84;21336;-79
2023/09/01 00:08:01;;;;;;;39.65;20.00;;;;;;;33.05;38.33;99705.03;1712594;84;21332;-79
2023/09/01 00:11:07;;;;;;;35.95;19.23;;;;;;;32.96;38.53;99703.66;1712509;84;21367;-78
2023/09/01 00:14:12;;;;;;;38.30;20.70;;;;;;;33.07;38.37;99699.84;1712590;84;21327;-78
2023/09/01 00:17:19;;;;;;;33.85;19.20;;;;;;;32.91;38.60;99696.77;1712512;84;21356;-78
2023/09/01 00:20:25;;;;;;;38.88;19.95;;;;;;;33.05;38.25;99696.53;1712432;84;21324;-78
2023/09/01 00:23:31;;;;;;;43.10;19.75;;;;;;;33.02;38.30;99695.20;1712556;84;21324;-79
2023/09/01 00:26:37;;;;;;;37.45;19.90;;;;;;;33.38;37.71;99695.84;1712463;84;21320;-79
2023/09/01 00:29:45;;;;;;;43.40;20.20;;;;;;;33.51;37.31;99701.88;1711152;84;21331;-78
2023/09/01 00:32:51;;;;;;;34.75;20.10;;;;;;;33.15;37.87;99700.39;1711031;84;21351;-79
2023/09/01 00:35:57;;;;;;;35.08;19.45;;;;;;;33.03;38.08;99697.45;1726719;82;21899;-78
2023/09/01 00:39:03;;;;;;;39.60;20.35;;;;;;;33.18;37.80;99694.05;1737554;82;21348;-78
2023/09/01 00:42:09;;;;;;;43.58;22.20;;;;;;;32.83;38.24;99689.94;1737453;82;21655;-78
2023/09/01 00:45:16;;;;;;;36.90;20.05;;;;;;;33.16;37.57;99694.97;1737538;82;21316;-78
2023/09/01 00:48:21;;;;;;;53.48;23.62;;;;;;;32.91;37.93;99696.77;1737467;82;21344;-78
2023/09/01 00:51:26;;;;;;;38.48;21.23;;;;;;;33.35;37.14;99697.94;1738983;82;21840;-78
2023/09/01 00:54:32;;;;;;;42.83;21.65;;;;;;;32.99;37.66;99705.82;1738791;82;21315;-78
2023/09/01 00:57:37;;;;;;;39.10;20.88;;;;;;;33.06;37.44;99707.52;1738936;82;21356;-78
2023/09/01 01:00:43;;;;;;;60.33;23.42;;;;;;;33.22;37.23;99706.37;1738967;82;21899;-79
2023/09/01 01:03:51;;;;;;;41.50;23.47;;;;;;;33.15;37.20;99713.14;1737748;82;21905;-79
2023/09/01 01:07:18;;;;;;;45.40;23.30;;;;;;;32.92;37.46;99707.51;1738817;82;21331;-78
2023/09/01 01:10:31;;;;;;;40.40;23.00;;;;;;;33.05;37.21;99707.87;1738905;82;21316;-78
2023/09/01 01:13:40;;;;;;;35.98;23.57;;;;;;;33.03;37.13;99708.78;1738109;82;21340;-78
2023/09/01 01:16:46;;;;;;;45.63;23.65;;;;;;;32.99;36.92;99708.66;1739090;82;21344;-78
2023/09/01 01:20:13;;;;;;;46.30;23.10;;;;;;;32.82;37.05;99706.69;1737362;82;21938;-79
2023/09/01 01:23:21;;;;;;;41.00;22.58;;;;;;;32.88;36.93;99707.32;1738241;82;21303;-79
2023/09/01 01:26:27;;;;;;;49.58;24.40;;;;;;;32.60;37.32;99715.42;1738954;82;21312;-79
2023/09/01 01:29:32;;;;;;;46.28;24.02;;;;;;;32.83;36.87;99716.01;1738933;82;21335;-78
2023/09/01 01:32:38;;;;;;;35.68;22.48;;;;;;;32.93;36.66;99712.00;1738587;82;21391;-79
2023/09/01 01:36:14;;;;;;;47.65;24.20;;;;;;;32.93;36.63;99717.08;1736290;82;21918;-78
2023/09/01 01:39:25;;;;;;;54.77;23.87;;;;;;;32.93;36.62;99723.33;1720551;83;21283;-78
2023/09/01 01:42:30;;;;;;;53.33;25.35;;;;;;;32.96;36.49;99724.91;1726008;83;21326;-79
2023/09/01 01:45:36;;;;;;;46.63;26.25;;;;;;;32.92;36.43;99719.66;1725871;83;21318;-79
2023/09/01 01:48:45;;;;;;;53.38;27.65;;;;;;;32.61;36.88;99717.11;1725963;83;21314;-79
2023/09/01 01:51:50;;;;;;;64.20;28.20;;;;;;;32.65;36.74;99708.16;1726043;83;21343;-79
2023/09/01 01:54:56;;;;;;;51.02;29.10;;;;;;;32.49;36.88;99716.38;1724482;83;21318;-78
2023/09/01 01:58:05;;;;;;;50.48;28.73;;;;;;;32.33;37.00;99717.23;1724507;83;21865;-79
2023/09/01 02:01:14;;;;;;;61.48;30.52;;;;;;;32.45;36.54;99713.97;1724418;83;21323;-79
2023/09/01 02:04:19;;;;;;;66.28;28.30;;;;;;;32.31;36.54;99707.05;1724960;83;21362;-79
2023/09/01 02:07:25;;;;;;;61.05;29.45;;;;;;;32.14;36.53;99700.03;1725796;83;21346;-79
2023/09/01 02:10:32;;;;;;;62.38;31.57;;;;;;;32.34;36.03;99700.50;1697428;84;21869;-79
2023/09/01 02:13:39;;;;;;;85.42;33.13;;;;;;;32.48;35.60;99693.49;1697444;84;21357;-78
2023/09/01 02:16:46;;;;;;;93.85;34.98;;;;;;;32.55;35.15;99692.96;1696666;84;21338;-79
2023/09/01 02:19:51;;;;;;;87.95;38.50;;;;;;;32.67;34.87;99697.34;1697749;84;22678;-79
2023/09/01 02:22:58;;;;;;;75.17;35.13;;;;;;;32.76;34.54;99698.14;1697976;84;21325;-79
2023/09/01 02:26:04;;;;;;;77.22;36.30;;;;;;;32.70;34.56;99696.67;1698200;84;21355;-79
2023/09/01 02:29:13;;;;;;;71.33;34.48;;;;;;;32.81;34.35;99695.12;1697823;84;21909;-78
2023/09/01 02:32:18;;;;;;;75.10;34.13;;;;;;;32.83;34.28;99699.02;1697866;84;21314;-78
2023/09/01 02:35:23;;;;;;;65.10;33.20;;;;;;;32.86;34.25;99701.77;1697554;84;21365;-79
2023/09/01 02:38:29;;;;;;;60.08;32.13;;;;;;;32.85;34.28;99705.78;1710477;83;21394;-79
2023/09/01 02:41:35;;;;;;;65.42;32.98;;;;;;;32.67;34.47;99711.50;1721561;83;21343;-79
2023/09/01 02:44:40;;;;;;;73.37;35.08;;;;;;;32.80;34.34;99716.70;1720583;83;21340;-78
2023/09/01 02:47:47;;;;;;;78.95;36.88;;;;;;;32.90;34.13;99709.83;1721588;83;21248;-79
2023/09/01 02:50:52;;;;;;;83.72;36.60;;;;;;;32.53;34.54;99715.95;1721006;83;21349;-78
2023/09/01 02:53:59;;;;;;;79.97;35.30;;;;;;;32.51;34.47;99719.72;1721209;83;21371;-78
2023/09/01 02:57:04;;;;;;;96.82;37.67;;;;;;;32.21;34.48;99720.14;1721634;83;21306;-79
2023/09/01 03:00:18;;;;;;;80.30;35.03;;;;;;;31.85;34.79;99721.91;1721865;83;21862;-78
2023/09/01 03:03:23;;;;;;;83.70;34.98;;;;;;;31.57;35.11;99727.00;1721534;83;21900;-78
2023/09/01 03:06:28;;;;;;;81.28;33.75;;;;;;;31.07;35.83;99730.20;1720703;83;21375;-79
2023/09/01 03:09:34;;;;;;;77.45;35.55;;;;;;;30.70;36.38;99730.09;1721474;83;21318;-78
2023/09/01 03:12:39;;;;;;;77.15;33.45;;;;;;;30.93;36.11;99742.19;1721834;83;21885;-78
2023/09/01 03:15:45;;;;;;;82.27;34.27;;;;;;;30.97;35.89;99743.20;1720242;83;21430;-79
2023/09/01 03:18:56;;;;;;;84.40;34.38;;;;;;;31.32;35.37;99736.27;1721655;83;21314;-78
2023/09/01 03:21:58;;;;;;;73.30;34.18;;;;;;;31.22;35.34;99752.34;1720516;83;21342;-79
2023/09/01 03:25:03;;;;;;;92.35;35.43;;;;;;;31.14;35.37;99742.41;1720756;83;21357;-79
2023/09/01 03:28:09;;;;;;;81.40;34.65;;;;;;;31.18;35.32;99743.43;1721557;83;21359;-79
2023/09/01 03:31:18;;;;;;;78.85;34.43;;;;;;;31.49;34.88;99749.05;1721509;83;21307;-79
2023/09/01 03:34:24;;;;;;;76.80;33.78;;;;;;;31.25;35.02;99746.04;1721311;83;21342;-79
2023/09/01 03:37:31;;;;;;;65.92;33.55;;;;;;;31.27;34.96;99745.16;1720857;83;21898;-79
2023/09/01 03:40:37;;;;;;;73.57;33.78;;;;;;;31.45;34.56;99740.97;1739751;82;21308;-79
2023/09/01 03:43:43;;;;;;;73.02;34.15;;;;;;;31.58;34.18;99742.00;1713465;83;21334;-79
2023/09/01 03:46:49;;;;;;;78.07;34.65;;;;;;;31.87;33.67;99740.80;1739739;82;21338;-79
2023/09/01 03:49:54;;;;;;;75.28;34.63;;;;;;;31.80;33.78;99732.77;1713530;83;21890;-79
2023/09/01 03:53:02;;;;;;;87.05;35.20;;;;;;;32.02;33.72;99726.16;1738292;82;21330;-78
2023/09/01 03:56:18;;;;;;;81.75;35.38;;;;;;;32.14;33.67;99719.84;1712454;83;21374;-79
2023/09/01 03:59:23;;;;;;;86.32;33.80;;;;;;;32.31;33.22;99722.62;1739842;82;21862;-79
2023/09/01 04:02:28;;;;;;;71.42;34.18;;;;;;;32.50;32.87;99728.52;1713473;83;21315;-78
2023/09/01 04:05:35;;;;;;;74.60;33.10;;;;;;;32.31;33.02;99725.45;1738924;82;22049;-79
2023/09/01 04:08:42;;;;;;;80.42;33.05;;;;;;;32.28;33.21;99726.14;1713449;83;21351;-79
2023/09/01 04:11:47;;;;;;;78.37;33.28;;;;;;;32.25;33.43;99731.05;1739750;82;21316;-79
2023/09/01 04:14:54;;;;;;;67.10;31.57;;;;;;;32.19;33.78;99739.47;1712182;83;21941;-78
2023/09/01 04:17:58;;;;;;;71.95;31.90;;;;;;;32.43;33.57;99731.05;1738230;82;21877;-79
2023/09/01 04:21:05;;;;;;;62.10;30.12;;;;;;;32.65;33.39;99720.06;1713443;83;21327;-79
2023/09/01 04:24:11;;;;;;;63.00;31.15;;;;;;;33.00;33.17;99723.05;1739750;82;21316;-79
2023/09/01 04:27:16;;;;;;;84.40;29.65;;;;;;;33.35;32.79;99726.28;1713558;83;21315;-78
2023/09/01 04:30:21;;;;;;;66.22;25.97;;;;;;;33.63;32.37;99726.03;1738237;82;21319;-79
2023/09/01 04:33:27;;;;;;;47.90;24.55;;;;;;;33.78;31.62;99716.94;1712165;83;21324;-79
2023/09/01 04:36:33;;;;;;;62.33;24.85;;;;;;;33.93;31.14;99721.73;1738794;82;21335;-79
2023/09/01 04:39:41;;;;;;;57.67;23.02;;;;;;;33.76;31.22;99721.28;1710350;83;21324;-78
2023/09/01 04:42:47;;;;;;;45.10;21.15;;;;;;;33.90;31.18;99721.83;1769399;81;21302;-79
2023/09/01 04:45:54;;;;;;;44.13;21.30;;;;;;;34.10;30.60;99724.43;1770479;81;21295;-78
2023/09/01 04:48:59;;;;;;;45.95;22.00;;;;;;;34.46;30.18;99725.79;1770860;81;21338;-78
2023/09/01 04:52:06;;;;;;;45.60;19.95;;;;;;;34.83;29.97;99723.27;1770842;81;21300;-78
2023/09/01 04:55:12;;;;;;;45.55;19.07;;;;;;;34.82;29.50;99734.39;1771829;79;21299;-78
2023/09/01 04:58:18;;;;;;;42.93;19.10;;;;;;;35.14;28.98;99730.41;1771162;79;21343;-79
2023/09/01 05:01:24;;;;;;;36.28;18.05;;;;;;;35.18;28.93;99723.42;1769641;81;21303;-78
2023/09/01 05:04:29;;;;;;;33.10;16.97;;;;;;;35.64;28.48;99727.80;1769568;81;21304;-79
2023/09/01 05:07:35;;;;;;;41.25;18.30;;;;;;;35.82;28.28;99726.34;1776640;79;21881;-78
2023/09/01 05:10:41;;;;;;;38.25;16.80;;;;;;;35.81;28.65;99726.11;1800815;79;21335;-79
2023/09/01 05:13:49;;;;;;;44.08;16.65;;;;;;;35.84;28.67;99731.06;1795075;79;21298;-79
2023/09/01 05:16:56;;;;;;;43.28;17.27;;;;;;;35.97;28.51;99747.54;1788587;79;21895;-78
2023/09/01 05:20:01;;;;;;;42.62;18.05;;;;;;;35.88;28.69;99749.67;1769386;81;21871;-78
2023/09/01 05:23:06;;;;;;;40.85;18.00;;;;;;;36.18;28.46;99760.14;1768621;81;21344;-78
2023/09/01 05:26:13;;;;;;;34.95;17.73;;;;;;;36.04;28.75;99756.87;1771817;79;21293;-81
2023/09/01 05:29:20;;;;;;;29.82;16.17;;;;;;;35.81;29.20;99760.84;1800914;78;21303;-78
2023/09/01 05:32:27;;;;;;;44.98;15.85;;;;;;;36.24;29.09;99755.88;1786361;78;21323;-79
2023/09/01 05:35:33;;;;;;;34.10;16.10;;;;;;;36.27;29.49;99754.30;1769577;81;21328;-79
2023/09/01 05:38:39;;;;;;;32.17;15.93;;;;;;;36.29;29.44;99747.67;1771955;79;21355;-79
2023/09/01 05:41:45;;;;;;;44.58;16.62;;;;;;;36.35;29.51;99744.19;1775666;79;21286;-79
2023/09/01 05:44:51;;;;;;;38.05;16.23;;;;;;;36.10;29.87;99738.38;1786451;78;21303;-79
2023/09/01 05:47:58;;;;;;;47.03;16.30;;;;;;;36.19;29.83;99740.48;1780150;79;21267;-79
2023/09/01 05:51:04;;;;;;;28.40;15.18;;;;;;;36.06;30.04;99748.82;1786065;79;21927;-78
2023/09/01 05:54:09;;;;;;;38.00;15.90;;;;;;;35.82;30.31;99750.52;1773275;79;21608;-79
2023/09/01 05:57:14;;;;;;;36.53;15.03;;;;;;;35.86;30.26;99754.91;1783539;79;21288;-80
2023/09/01 06:00:24;;;;;;;32.88;15.48;;;;;;;36.09;30.12;99760.91;1777180;79;21565;-79
2023/09/01 06:03:30;;;;;;;33.48;14.87;;;;;;;36.18;30.09;99774.38;1783818;79;21268;-79
2023/09/01 06:06:46;;;;;;;38.20;15.38;;;;;;;36.43;29.87;99774.33;1723997;81;21328;-79
2023/09/01 06:09:54;;;;;;;38.67;14.63;;;;;;;36.50;29.72;99777.37;1783486;79;21308;-79
2023/09/01 06:13:02;;;;;;;27.37;14.83;;;;;;;36.63;29.46;99783.84;1784978;79;21298;-79
2023/09/01 06:16:15;;;;;;;34.58;14.65;;;;;;;36.62;29.45;99791.56;1779183;79;22552;-78
2023/09/01 06:19:21;;;;;;;35.98;15.08;;;;;;;36.59;29.39;99791.68;1764754;79;21444;-79
2023/09/01 06:22:27;;;;;;;37.23;15.68;;;;;;;36.18;30.02;99784.94;1781799;78;21905;-80
2023/09/01 06:25:32;;;;;;;30.82;15.50;;;;;;;36.21;30.44;99788.50;1784025;78;21366;-77
2023/09/01 06:28:39;;;;;;;40.48;16.30;;;;;;;36.25;30.61;99796.55;1768601;78;21439;-78
2023/09/01 06:31:43;;;;;;;45.85;17.20;;;;;;;36.16;30.84;99791.60;1793165;78;21291;-78
2023/09/01 06:34:50;;;;;;;42.88;17.05;;;;;;;36.24;31.30;99790.03;1783598;79;22265;-79
2023/09/01 06:38:00;;;;;;;30.43;18.67;;;;;;;36.41;31.82;99793.16;1763946;78;21168;-79
2023/09/01 06:41:08;;;;;;;36.45;20.97;;;;;;;36.53;32.03;99780.92;1785571;78;21301;-79
2023/09/01 06:44:24;;;;;;;46.80;22.58;;;;;;;36.72;32.15;99783.91;1773665;78;21307;-80
2023/09/01 06:47:32;;;;;;;56.90;22.37;;;;;;;36.75;32.57;99777.48;1722047;81;21181;-80
2023/09/01 06:50:39;;;;;;;47.38;22.13;;;;;;;37.20;32.87;99778.27;1721058;81;21697;-79
2023/09/01 06:53:45;;;;;;;43.42;21.30;;;;;;;37.44;32.86;99780.95;1726469;81;21297;-78
2023/09/01 06:56:53;;;;;;;41.50;22.93;;;;;;;37.73;32.64;99779.60;1752861;79;22004;-79
2023/09/01 06:59:58;;;;;;;46.70;24.05;;;;;;;38.01;32.76;99775.78;1721455;81;21344;-79
2023/09/01 07:03:08;;;;;;;43.98;21.55;;;;;;;38.17;33.11;99767.99;1792233;78;21861;-77
2023/09/01 07:06:27;;;;;;;44.85;22.48;;;;;;;38.59;32.80;99775.82;1793284;78;21284;-80
2023/09/01 07:09:40;;;;;;;40.50;19.67;;;;;;;38.78;32.49;99768.67;1797252;79;21803;-80
2023/09/01 07:12:49;;;;;;;38.08;19.42;;;;;;;39.14;32.14;99757.86;1774125;78;21203;-79
2023/09/01 07:16:08;;;;;;;50.88;18.92;;;;;;;39.50;31.88;99753.59;1831988;76;22184;-80
2023/09/01 07:19:17;;;;;;;40.15;18.67;;;;;;;39.54;31.59;99753.05;1790080;78;22007;-77
2023/09/01 07:22:27;;;;;;;35.90;17.83;;;;;;;39.75;31.42;99756.84;1820749;77;21287;-80
2023/09/01 07:25:33;;;;;;;41.10;18.35;;;;;;;39.76;31.34;99752.80;1755002;79;21315;-80
2023/09/01 07:28:42;;;;;;;37.67;17.00;;;;;;;40.09;31.05;99749.80;1760772;79;21878;-79
2023/09/01 07:31:53;;;;;;;45.35;17.65;;;;;;;40.39;30.75;99762.64;1761683;80;21317;-80
2023/09/01 07:35:15;;;;;;;40.00;16.57;;;;;;;40.41;30.93;99751.61;1854298;76;22291;-78
2023/09/01 07:38:21;;;;;;;35.60;16.62;;;;;;;40.31;30.85;99748.02;1822442;77;22588;-78
2023/09/01 07:41:26;;;;;;;27.25;15.68;;;;;;;40.42;31.20;99748.98;1824028;77;21990;-79
2023/09/01 07:44:32;;;;;;;25.40;14.10;;;;;;;40.12;31.67;99749.00;1823735;77;21285;-77
2023/09/01 07:47:40;;;;;;;25.45;13.68;;;;;;;40.29;31.61;99739.82;1821128;77;21327;-79
2023/09/01 07:50:51;;;;;;;29.52;13.60;;;;;;;40.58;31.36;99734.44;1771664;80;21268;-78
2023/09/01 07:53:56;;;;;;;20.72;10.78;;;;;;;40.86;30.94;99739.03;1736095;79;21343;-79
2023/09/01 07:57:02;;;;;;;19.30;10.90;;;;;;;41.09;31.32;99750.95;1757137;80;21304;-79
2023/09/01 08:00:09;;;;;;;20.80;10.15;;;;;;;40.22;32.43;99744.02;1760834;80;21945;-79
2023/09/01 08:03:15;;;;;;;24.95;11.38;;;;;;;40.63;31.76;99734.70;1761394;80;21315;-79
2023/09/01 08:06:21;;;;;;;19.57;11.25;;;;;;;40.60;31.70;99737.73;1792748;78;21344;-79
2023/09/01 08:09:29;;;;;;;18.45;10.68;;;;;;;40.13;32.46;99736.33;1771405;80;21273;-79
2023/09/01 08:12:36;;;;;;;18.32;9.25;;;;;;;40.35;32.19;99741.11;1785504;79;21330;-79
2023/09/01 08:15:41;;;;;;;17.98;9.70;;;;;;;40.88;31.81;99748.66;1762024;80;21324;-79
2023/09/01 08:18:48;;;;;;;31.70;10.00;;;;;;;40.81;31.81;99741.44;1730878;81;21299;-79
2023/09/01 08:21:56;;;;;;;22.60;9.65;;;;;;;40.68;32.25;99742.32;1758364;81;21354;-78
2023/09/01 08:25:22;;;;;;;25.80;11.20;;;;;;;40.96;31.64;99738.12;1852368;76;22275;-79
2023/09/01 08:28:31;;;;;;;18.70;10.25;;;;;;;40.74;31.85;99747.08;1798453;77;21348;-79
2023/09/01 08:31:38;;;;;;;23.50;10.30;;;;;;;40.80;31.51;99746.35;1749056;80;22642;-79
2023/09/01 08:34:43;;;;;;;28.83;8.70;;;;;;;40.89;31.08;99741.73;1729312;80;21358;-79
2023/09/01 08:37:50;;;;;;;18.17;8.43;;;;;;;40.36;31.34;99744.19;1747649;80;21323;-79
2023/09/01 08:40:55;;;;;;;31.05;9.33;;;;;;;40.25;31.58;99749.58;1756480;80;21320;-79
2023/09/01 08:44:01;;;;;;;28.35;9.13;;;;;;;40.19;31.76;99737.66;1795592;77;22303;-79
2023/09/01 08:47:07;;;;;;;28.17;10.00;;;;;;;40.51;31.88;99738.62;1800758;78;21283;-79
2023/09/01 08:50:14;;;;;;;23.73;9.83;;;;;;;41.17;31.37;99744.64;1804068;78;21349;-79
2023/09/01 08:53:20;;;;;;;23.65;8.50;;;;;;;41.74;30.02;99744.50;1744949;81;21897;-79
2023/09/01 08:56:26;;;;;;;25.02;8.95;;;;;;;41.68;29.98;99754.70;1740436;80;21362;-79
2023/09/01 09:07:42;;;;;;;21.62;7.12;;;;;;;42.33;29.03;99750.16;1759905;80;21511;-78
2023/09/01 09:10:52;;;;;;;12.93;6.15;;;;;;;42.36;28.36;99748.75;1751414;79;21388;-78
2023/09/01 09:13:59;;;;;;;14.95;6.42;;;;;;;42.31;27.70;99744.83;1782042;78;21292;-78
2023/09/01 09:17:14;;;;;;;15.50;7.87;;;;;;;42.38;26.93;99750.59;1782348;78;21338;-78
2023/09/01 09:20:43;;;;;;;14.83;7.22;;;;;;;42.07;27.21;99744.91;1787675;78;21257;-79
2023/09/01 09:27:45;;;;;;;13.50;7.10;;;;;;;41.70;28.27;99746.52;1740081;81;21174;-79
2023/09/01 09:31:06;;;;;;;19.48;6.80;;;;;;;41.79;28.30;99745.58;1726458;80;21976;-79
2023/09/01 09:34:24;;;;;;;18.10;7.17;;;;;;;42.24;26.92;99743.97;1758081;79;21976;-79
2023/09/01 09:37:41;;;;;;;13.80;5.65;;;;;;;42.18;27.04;99729.77;1755727;79;21993;-78
2023/09/01 09:41:09;;;;;;;10.43;6.05;;;;;;;42.34;26.51;99737.44;1724686;81;21314;-79
2023/09/01 09:44:50;;;;;;;18.27;6.12;;;;;;;42.07;26.12;99735.48;1728623;81;21337;-79
2023/09/01 09:48:13;;;;;;;;;;;;;;;42.02;26.46;99734.39;1727761;80;21358;-79
2023/09/01 09:51:27;;;;;;;15.30;7.72;;;;;;;42.01;26.47;99732.76;1722773;81;20347;-81
2023/09/01 09:54:40;;;;;;;17.10;7.42;;;;;;;42.14;25.99;99731.18;1734625;80;22382;-80
2023/09/01 09:57:58;;;;;;;21.52;7.75;;;;;;;41.82;26.67;99726.72;1790298;78;21327;-78
2023/09/01 10:01:15;;;;;;;19.23;8.80;;;;;;;42.11;26.47;99724.21;1752176;79;21290;-80
2023/09/01 10:04:50;;;;;;;15.90;7.92;;;;;;;41.89;26.68;99726.77;1777077;78;21090;-79
2023/09/01 10:08:06;;;;;;;17.55;8.78;;;;;;;42.12;26.75;99725.84;1733045;81;21315;-80
2023/09/01 10:11:38;;;;;;;29.05;8.60;;;;;;;41.85;26.62;99720.18;1792289;78;21960;-79
2023/09/01 10:14:48;;;;;;;18.17;7.97;;;;;;;41.51;27.23;99718.11;1795700;77;21904;-80
2023/09/01 10:18:08;;;;;;;17.17;7.83;;;;;;;41.43;27.67;99723.58;1788273;78;21350;-80
2023/09/01 10:21:29;;;;;;;17.50;7.12;;;;;;;41.37;27.04;99711.66;1726798;81;21229;-79
2023/09/01 10:24:43;;;;;;;15.65;7.60;;;;;;;41.54;27.31;99707.24;1717220;81;21244;-79
2023/09/01 10:28:18;;;;;;;17.70;7.50;;;;;;;41.93;26.89;99703.20;1737122;80;21329;-80
2023/09/01 10:31:41;;;;;;;13.20;7.08;;;;;;;42.13;26.60;99708.81;1729760;81;21197;-80
2023/09/01 10:35:03;;;;;;;13.00;5.97;;;;;;;42.21;26.07;99699.66;1747590;80;21375;-79
2023/09/01 10:38:49;;;;;;;9.00;4.92;;;;;;;42.11;26.12;99700.38;1724398;81;21462;-79
2023/09/01 10:42:13;;;;;;;7.95;4.80;;;;;;;41.98;25.87;99688.45;1749853;79;21182;-79
2023/09/01 10:45:35;;;;;;;11.40;4.80;;;;;;;41.71;26.46;99674.14;1723075;81;21882;-79
2023/09/01 10:49:12;;;;;;;9.95;4.50;;;;;;;41.80;26.54;99667.45;1730685;81;21322;-77
2023/09/01 10:52:31;;;;;;;12.43;4.12;;;;;;;42.11;26.12;99652.40;1791191;78;21939;-79
2023/09/01 10:56:15;;;;;;;14.38;4.60;;;;;;;42.22;26.17;99640.96;1787056;78;21331;-79
2023/09/01 10:59:45;;;;;;;13.22;4.33;;;;;;;42.06;26.36;99628.35;1795765;77;21379;-79
2023/09/01 11:03:02;;;;;;;14.43;4.75;;;;;;;41.77;26.81;99643.20;1790823;78;21322;-79
2023/09/01 11:06:41;;;;;;;13.22;5.75;;;;;;;41.35;26.68;99644.58;1790910;78;21589;-79
2023/09/01 11:09:59;;;;;;;9.58;4.65;;;;;;;41.68;27.33;99657.71;1777439;78;21890;-79
2023/09/01 11:13:04;;;;;;;20.35;5.15;;;;;;;41.99;26.75;99663.42;1792500;78;21874;-79
2023/09/01 11:16:16;;;;;;;12.45;4.78;;;;;;;42.15;26.90;99655.27;1791507;77;21307;-79
2023/09/01 11:19:22;;;;;;;13.62;4.92;;;;;;;42.20;26.79;99644.84;1769083;79;21640;-79
2023/09/01 11:26:03;;;;;;;17.77;9.50;;;;;;;42.36;26.29;99660.28;1721491;81;22521;-79
2023/09/01 11:29:12;;;;;;;15.38;7.87;;;;;;;42.42;27.19;99660.08;1740707;81;21285;-80
2023/09/01 11:32:20;;;;;;;50.38;9.78;;;;;;;41.91;26.28;99644.52;1759938;79;22380;-79
2023/09/01 11:35:32;;;;;;;31.45;10.45;;;;;;;41.12;27.84;99618.20;1787386;78;21343;-81
2023/09/01 11:38:37;;;;;;;30.72;9.95;;;;;;;40.42;31.88;99621.48;1776917;78;21343;-82
2023/09/01 11:41:43;;;;;;;21.45;9.45;;;;;;;38.84;33.84;99631.99;1769325;79;21334;-81
2023/09/01 11:44:48;;;;;;;19.00;10.48;;;;;;;37.54;35.55;99621.24;1722013;81;21308;-81
2023/09/01 11:48:00;;;;;;;19.27;9.48;;;;;;;37.21;36.75;99636.77;1721213;81;21308;-81
2023/09/01 11:51:07;;;;;;;21.15;11.22;;;;;;;36.76;37.90;99650.93;1701412;82;21319;-81
2023/09/01 11:54:16;;;;;;;21.82;10.48;;;;;;;36.52;38.06;99666.19;1727428;81;21323;-79
2023/09/01 11:57:22;;;;;;;21.35;11.55;;;;;;;36.31;38.52;99671.25;1712357;81;21356;-80
2023/09/01 12:00:42;;;;;;;20.17;11.80;;;;;;;36.43;38.84;99660.44;1719847;81;22662;-80
2023/09/01 12:03:55;;;;;;;25.45;11.95;;;;;;;36.51;38.87;99649.44;1770835;79;21858;-79
2023/09/01 12:07:05;;;;;;;23.32;11.18;;;;;;;36.91;38.93;99640.75;1775551;79;21326;-79
2023/09/01 12:10:16;;;;;;;25.23;12.98;;;;;;;36.97;38.76;99644.95;1809300;77;21346;-80
2023/09/01 12:13:22;;;;;;;24.65;12.13;;;;;;;36.48;39.05;99660.98;1793095;78;21347;-80
2023/09/01 12:16:33;;;;;;;20.62;10.48;;;;;;;36.66;39.27;99687.09;1802289;78;21319;-80
2023/09/01 12:19:57;;;;;;;18.30;9.53;;;;;;;36.62;39.30;99694.72;1781811;78;21387;-79
2023/09/01 12:23:03;;;;;;;16.50;9.78;;;;;;;36.60;39.15;99691.39;1795182;78;21380;-79
2023/09/01 12:26:09;;;;;;;23.60;10.28;;;;;;;36.73;39.47;99675.88;1761432;78;21342;-80
2023/09/01 12:29:14;;;;;;;17.37;9.93;;;;;;;36.63;38.49;99692.09;1779032;78;22237;-80
2023/09/01 12:32:20;;;;;;;15.85;8.25;;;;;;;36.43;39.22;99731.63;1779353;78;22362;-80
2023/09/01 12:35:25;;;;;;;18.92;8.15;;;;;;;36.22;37.96;99741.75;1795339;78;21318;-80
2023/09/01 12:38:31;;;;;;;14.00;6.97;;;;;;;35.72;37.74;99780.06;1801381;78;21300;-79
2023/09/01 12:41:38;;;;;;;13.85;7.65;;;;;;;35.52;37.26;99770.45;1732058;81;21343;-79
2023/09/01 12:44:44;;;;;;;10.25;7.75;;;;;;;35.58;36.98;99788.97;1779686;78;21326;-79
2023/09/01 12:47:49;;;;;;;11.28;7.53;;;;;;;35.65;37.07;99779.81;1789630;79;21328;-80
2023/09/01 12:50:55;;;;;;;13.93;7.10;;;;;;;35.89;34.54;99787.48;1793750;78;21350;-80
2023/09/01 12:54:01;;;;;;;9.88;6.67;;;;;;;35.59;34.59;99790.61;1773135;79;21338;-80
2023/09/01 12:57:07;;;;;;;14.65;7.70;;;;;;;35.54;35.37;99773.80;1792144;79;21387;-80
2023/09/01 13:00:15;;;;;;;11.55;7.35;;;;;;;35.29;35.57;99803.63;1792153;79;21336;-80
2023/09/01 13:03:20;;;;;;;14.25;8.03;;;;;;;35.30;35.48;99805.88;1786369;79;21337;-80
2023/09/01 13:06:26;;;;;;;9.95;8.00;;;;;;;35.31;34.71;99801.84;1789972;79;21333;-80
2023/09/01 13:09:31;;;;;;;14.10;9.28;;;;;;;35.16;34.85;99789.75;1796809;79;21346;-79
2023/09/01 13:12:37;;;;;;;14.85;10.58;;;;;;;35.36;34.27;99780.28;1782145;79;21344;-80
2023/09/01 13:15:43;;;;;;;13.48;11.08;;;;;;;35.51;33.69;99758.26;1789418;79;21382;-80
2023/09/01 13:18:48;;;;;;;14.13;11.08;;;;;;;35.79;33.54;99754.07;1793688;79;21346;-80
2023/09/01 13:21:55;;;;;;;17.07;11.00;;;;;;;35.79;33.76;99757.52;1801177;79;21341;-79
2023/09/01 13:25:00;;;;;;;16.37;11.12;;;;;;;35.78;33.63;99753.02;1787192;79;21949;-79
2023/09/01 13:28:06;;;;;;;21.35;11.35;;;;;;;35.67;34.10;99745.58;1782121;80;21343;-79
2023/09/01 13:31:10;;;;;;;19.20;10.63;;;;;;;35.76;34.65;99747.70;1789586;79;21888;-79
2023/09/01 13:34:17;;;;;;;13.50;9.75;;;;;;;35.85;34.92;99746.11;1783838;79;21361;-79
2023/09/01 13:37:22;;;;;;;12.88;8.90;;;;;;;36.13;34.77;99753.28;1793719;79;21313;-79
2023/09/01 13:40:28;;;;;;;15.10;9.98;;;;;;;36.02;34.68;99753.58;1775305;79;22269;-79
2023/09/01 13:43:34;;;;;;;12.93;8.98;;;;;;;35.95;34.82;99762.73;1782311;79;21331;-79
2023/09/01 13:46:40;;;;;;;16.65;10.45;;;;;;;36.02;34.93;99750.13;1785844;79;21218;-79
2023/09/01 13:49:46;;;;;;;15.25;10.25;;;;;;;36.19;34.80;99753.28;1793878;79;21342;-79
2023/09/01 13:52:52;;;;;;;13.55;9.35;;;;;;;36.18;34.78;99760.14;1791774;79;21338;-79
2023/09/01 13:55:58;;;;;;;17.32;11.10;;;;;;;35.91;35.00;99766.03;1793321;79;21346;-79
2023/09/01 13:59:03;;;;;;;19.10;13.25;;;;;;;36.21;34.43;99743.77;1775384;79;21330;-79
2023/09/01 14:02:10;;;;;;;19.05;12.75;;;;;;;36.38;33.79;99730.43;1778140;79;21904;-79
2023/09/01 14:05:16;;;;;;;23.90;14.70;;;;;;;36.24;33.50;99717.44;1775458;79;21897;-79
2023/09/01 14:08:23;;;;;;;18.05;13.65;;;;;;;36.02;33.43;99723.69;1797967;79;21349;-78
2023/09/01 14:11:29;;;;;;;19.37;14.35;;;;;;;35.94;33.82;99710.41;1784841;79;21885;-79
2023/09/01 14:14:34;;;;;;;21.57;15.70;;;;;;;36.13;33.95;99692.09;1788965;79;21338;-79
2023/09/01 14:17:40;;;;;;;18.30;14.78;;;;;;;36.13;34.31;99661.38;1794130;79;21409;-79
2023/09/01 14:20:49;;;;;;;20.60;16.62;;;;;;;36.09;34.31;99672.09;1796529;79;21315;-79
2023/09/01 14:23:54;;;;;;;23.70;15.80;;;;;;;35.87;34.60;99658.40;1789888;79;21364;-79
2023/09/01 14:27:01;;;;;;;21.75;14.70;;;;;;;35.92;34.41;99649.60;1791862;79;21910;-79
2023/09/01 14:30:07;;;;;;;19.85;15.23;;;;;;;36.02;33.90;99659.66;1772927;79;21349;-78
2023/09/01 14:33:14;;;;;;;17.52;14.35;;;;;;;35.92;33.75;99685.17;1803294;79;21898;-79
2023/09/01 14:36:21;;;;;;;19.25;13.88;;;;;;;35.80;33.72;99710.80;1796689;79;21325;-78
2023/09/01 14:39:27;;;;;;;18.73;14.40;;;;;;;35.72;33.72;99716.89;1790933;79;21316;-79
2023/09/01 14:42:32;;;;;;;22.48;14.68;;;;;;;35.77;33.46;99723.75;1784565;79;21880;-79
2023/09/01 14:45:42;;;;;;;25.00;15.98;;;;;;;35.74;33.46;99730.14;1793118;79;21352;-80
2023/09/01 14:48:48;;;;;;;19.07;15.53;;;;;;;35.71;33.89;99713.81;1780611;79;21349;-80